McAllen, Texas
Current Conditions -  °F | °C
As of 2:53 PM on Sunday 21 Dec 2014 (Local Time) from KMFE Reporting Station
Overcast Overcast  
Wind Chill: 61°   Ceiling: 900
Heat Index: 61°   Visibility: 7mi
Dew Point: 57°   Wind: 7mph
Humidity: 87%   Direction: 340°NNW
Pressure: 29.96"   Gusts: NA
Location:  26.21°N, 98.23°W
Report Text: KMFE 212053Z 34006KT 7SM OVC009 16/14 A2996 RMK AO2 SLP144 T01610139 56037
Loading
Personal Weather Stations






























Interactive Weather Map New forecast layout! Learn more

10-Day Weather Forecast

Advertisements
Track Severe Weather on mobile